Time;durP1;ratioP1;P1;durP2;ratioP2;P2;SDS_P1;SDS_P2;PMS_P1;PMS_P2;Temp;Humidity;BMP_temperature;BMP_pressure;BME280_temperature;BME280_humidity;BME280_pressure;Samples;Min_cycle;Max_cycle;Signal;HPM_P1;HPM_P2
2023/09/15 00:02:28;;;;;;;7.38;4.95;;;;;;;15.96;100.00;92912.59;4998519;28;20141;-83
2023/09/15 00:04:53;;;;;;;11.35;5.38;;;;;;;15.93;100.00;92917.69;4998821;28;20456;-84
2023/09/15 00:07:19;;;;;;;8.70;5.32;;;;;;;15.91;100.00;92920.63;4998773;28;20026;-84
2023/09/15 00:09:45;;;;;;;8.60;5.32;;;;;;;15.89;100.00;92922.81;4998606;28;20034;-83
2023/09/15 00:12:10;;;;;;;10.50;5.13;;;;;;;15.87;100.00;92921.56;5006286;28;20057;-84
2023/09/15 00:14:36;;;;;;;8.50;5.32;;;;;;;15.81;100.00;92915.66;4999544;28;20046;-83
2023/09/15 00:17:03;;;;;;;10.15;5.40;;;;;;;15.80;100.00;92914.88;5002614;28;20037;-83
2023/09/15 00:19:29;;;;;;;9.07;5.18;;;;;;;15.74;100.00;92904.78;5005866;28;20042;-83
2023/09/15 00:21:55;;;;;;;8.27;4.95;;;;;;;15.74;100.00;92910.84;5001289;28;20083;-84
2023/09/15 00:24:21;;;;;;;7.70;4.30;;;;;;;15.71;100.00;92915.94;5002046;28;20038;-84
2023/09/15 00:26:48;;;;;;;6.80;3.55;;;;;;;15.68;100.00;92921.81;5003623;28;20041;-83
2023/09/15 00:29:14;;;;;;;8.77;4.22;;;;;;;15.66;100.00;92923.97;5000252;28;20038;-84
2023/09/15 00:31:41;;;;;;;8.90;4.53;;;;;;;15.64;100.00;92931.41;5000922;28;20030;-84
2023/09/15 00:34:07;;;;;;;7.30;4.50;;;;;;;15.66;100.00;92939.81;5010148;28;20121;-84
2023/09/15 00:36:33;;;;;;;9.30;3.80;;;;;;;15.58;100.00;92941.31;4995426;28;20065;-84
2023/09/15 00:38:58;;;;;;;5.43;3.08;;;;;;;15.52;100.00;92940.69;5006620;28;20461;-84
2023/09/15 00:41:24;;;;;;;6.03;3.65;;;;;;;15.49;100.00;92949.22;4996737;28;20088;-84
2023/09/15 00:43:51;;;;;;;7.00;4.30;;;;;;;15.46;100.00;92939.28;4997684;28;20375;-84
2023/09/15 00:46:18;;;;;;;9.55;4.13;;;;;;;15.46;100.00;92941.91;5010552;28;20053;-83
2023/09/15 00:48:45;;;;;;;5.25;3.42;;;;;;;15.43;100.00;92947.03;5005180;28;20033;-83
2023/09/15 00:51:12;;;;;;;4.38;2.60;;;;;;;15.43;100.00;92953.09;4989374;28;20050;-83
2023/09/15 00:53:39;;;;;;;4.72;3.13;;;;;;;15.33;100.00;92972.59;5006075;28;20375;-83
2023/09/15 00:56:06;;;;;;;5.35;3.83;;;;;;;15.34;100.00;92960.94;4999190;28;20049;-83
2023/09/15 00:58:32;;;;;;;5.95;3.47;;;;;;;15.30;100.00;92960.00;5000542;28;20045;-83
2023/09/15 01:00:59;;;;;;;5.40;3.60;;;;;;;15.23;100.00;92940.44;4991721;28;20030;-83
2023/09/15 01:03:30;;;;;;;5.45;3.60;;;;;;;15.23;100.00;92953.63;5005747;28;20042;-83
2023/09/15 01:05:56;;;;;;;6.47;3.88;;;;;;;15.22;100.00;92963.38;5004808;28;20041;-83
2023/09/15 01:08:22;;;;;;;6.90;3.72;;;;;;;15.22;100.00;92967.88;5006762;28;20030;-83
2023/09/15 01:10:48;;;;;;;7.47;4.00;;;;;;;15.27;100.00;92976.44;4999913;28;20058;-83
2023/09/15 01:13:14;;;;;;;5.43;3.60;;;;;;;15.23;100.00;92978.13;4998456;28;20045;-84
2023/09/15 01:16:09;;;;;;;5.72;3.30;;;;;;;15.23;100.00;92982.63;4998307;28;20560;-83
2023/09/15 01:18:45;;;;;;;4.47;2.38;;;;;;;15.23;100.00;92974.72;4974768;28;20034;-83
2023/09/15 01:21:29;;;;;;;3.70;2.20;;;;;;;15.24;100.00;92984.16;4996467;28;20092;-83
2023/09/15 01:24:22;;;;;;;8.50;2.50;;;;;;;15.05;100.00;92973.84;4964877;28;20041;-83
2023/09/15 01:27:09;;;;;;;3.92;2.28;;;;;;;15.02;100.00;92966.50;4993556;28;20038;-83
2023/09/15 01:29:44;;;;;;;6.28;2.72;;;;;;;15.05;100.00;92971.97;4957523;28;20061;-84
2023/09/15 01:32:12;;;;;;;5.35;2.72;;;;;;;15.03;100.00;92976.00;4996098;28;20038;-83
2023/09/15 01:34:44;;;;;;;5.43;2.70;;;;;;;15.04;100.00;92978.34;4997466;28;20375;-83
2023/09/15 01:37:10;;;;;;;13.38;2.10;;;;;;;15.04;100.00;92983.59;4980067;28;20502;-83
2023/09/15 01:39:36;;;;;;;4.20;2.00;;;;;;;14.99;100.00;92984.50;4992433;28;20038;-83
2023/09/15 01:42:02;;;;;;;4.88;2.45;;;;;;;14.95;100.00;92982.75;4997631;28;20121;-84
2023/09/15 01:44:27;;;;;;;4.97;2.58;;;;;;;14.98;100.00;92984.81;4978270;28;20077;-83
2023/09/15 01:46:53;;;;;;;5.18;2.25;;;;;;;14.98;100.00;92979.53;4978802;28;20620;-83
2023/09/15 01:49:20;;;;;;;5.35;2.40;;;;;;;14.95;100.00;92980.91;4989501;28;20474;-83
2023/09/15 01:51:46;;;;;;;5.47;2.90;;;;;;;14.94;100.00;92968.81;4980165;28;20073;-84
2023/09/15 01:54:14;;;;;;;4.30;2.10;;;;;;;14.97;100.00;92980.59;4997017;28;20034;-84
2023/09/15 01:56:39;;;;;;;7.10;2.42;;;;;;;14.97;100.00;92972.69;4997018;28;20034;-84
2023/09/15 01:59:05;;;;;;;8.15;2.40;;;;;;;14.93;100.00;92977.03;4997365;28;20069;-84
2023/09/15 02:01:31;;;;;;;33.58;3.30;;;;;;;14.88;100.00;92969.22;4976359;28;20066;-84
2023/09/15 02:03:56;;;;;;;219.10;6.72;;;;;;;14.83;100.00;92972.75;4994070;28;20048;-83
2023/09/15 02:06:22;;;;;;;7.13;2.67;;;;;;;14.82;100.00;92968.56;4976555;28;20034;-84
2023/09/15 02:08:47;;;;;;;5.28;2.65;;;;;;;14.84;100.00;92963.00;4993273;28;20512;-84
2023/09/15 02:11:13;;;;;;;4.85;2.70;;;;;;;14.83;100.00;92956.16;4979780;28;20054;-83
2023/09/15 02:13:40;;;;;;;5.70;2.90;;;;;;;14.91;100.00;92958.09;4980079;28;20097;-83
2023/09/15 02:16:06;;;;;;;5.00;2.75;;;;;;;14.93;100.00;92954.06;4994735;28;20089;-84
2023/09/15 02:18:31;;;;;;;6.28;2.78;;;;;;;14.89;100.00;92960.25;5003433;28;20453;-83
2023/09/15 02:20:57;;;;;;;6.97;2.67;;;;;;;14.88;100.00;92975.28;4995968;28;20042;-84
2023/09/15 02:23:24;;;;;;;40.40;3.03;;;;;;;14.83;100.00;92979.88;5006136;28;20034;-84
2023/09/15 02:25:50;;;;;;;518.35;13.48;;;;;;;14.74;100.00;92983.22;4998335;28;20034;-84
2023/09/15 02:28:16;;;;;;;227.50;7.63;;;;;;;14.67;100.00;92982.88;5006644;28;20394;-83
2023/09/15 02:30:41;;;;;;;7.35;2.08;;;;;;;14.49;100.00;92989.84;4991895;28;20038;-84
2023/09/15 02:33:07;;;;;;;3.38;1.90;;;;;;;14.42;100.00;92986.06;4990679;28;20084;-83
2023/09/15 02:35:33;;;;;;;3.10;1.95;;;;;;;14.42;100.00;92986.06;4984438;28;20258;-84
2023/09/15 02:38:00;;;;;;;3.67;2.08;;;;;;;14.43;100.00;92977.06;4991020;28;20034;-84
2023/09/15 02:40:26;;;;;;;3.80;1.92;;;;;;;14.44;100.00;92976.00;4980742;28;20034;-84
2023/09/15 02:42:51;;;;;;;4.10;2.03;;;;;;;14.47;100.00;92964.88;5006400;28;20393;-83
2023/09/15 02:45:17;;;;;;;5.28;2.47;;;;;;;14.48;100.00;92956.69;4996200;28;20658;-83
2023/09/15 02:47:43;;;;;;;6.07;2.40;;;;;;;14.48;100.00;92946.16;4981472;28;20031;-83
2023/09/15 02:50:09;;;;;;;6.13;2.33;;;;;;;14.46;100.00;92950.16;4998869;28;20061;-84
2023/09/15 02:52:35;;;;;;;5.07;2.30;;;;;;;14.46;100.00;92947.53;5008341;28;20088;-83
2023/09/15 02:55:04;;;;;;;4.57;2.30;;;;;;;14.44;100.00;92945.19;4997648;28;20046;-83
2023/09/15 02:57:30;;;;;;;4.03;2.03;;;;;;;14.43;100.00;92948.09;4985985;28;20451;-83
2023/09/15 02:59:55;;;;;;;3.28;1.90;;;;;;;14.38;100.00;92947.13;4993333;28;20098;-83
2023/09/15 03:02:21;;;;;;;3.60;2.20;;;;;;;14.37;100.00;92960.63;4988178;28;20355;-84
2023/09/15 03:04:47;;;;;;;3.97;2.30;;;;;;;14.33;100.00;92949.91;4996107;28;20100;-83
2023/09/15 03:07:14;;;;;;;5.40;2.40;;;;;;;14.28;100.00;92950.00;4998479;28;20026;-83
2023/09/15 03:09:39;;;;;;;5.13;2.20;;;;;;;14.22;100.00;92945.94;4998003;28;20034;-83
2023/09/15 03:12:05;;;;;;;5.25;2.65;;;;;;;14.25;100.00;92957.72;4977178;28;20065;-84
2023/09/15 03:14:32;;;;;;;4.90;2.38;;;;;;;14.25;100.00;92961.16;4963846;28;20093;-83
2023/09/15 03:16:58;;;;;;;6.53;2.40;;;;;;;14.27;100.00;92961.59;4977703;28;20061;-83
2023/09/15 03:19:24;;;;;;;5.60;2.60;;;;;;;14.27;100.00;92961.59;4977582;28;20051;-83
2023/09/15 03:21:51;;;;;;;8.50;3.00;;;;;;;14.28;100.00;92960.53;4987753;28;20039;-83
2023/09/15 03:24:19;;;;;;;6.20;2.80;;;;;;;14.31;100.00;92962.56;4980990;28;20481;-83
2023/09/15 03:26:45;;;;;;;6.50;2.85;;;;;;;14.35;100.00;92950.38;4985435;28;20363;-83
2023/09/15 03:29:11;;;;;;;5.65;2.35;;;;;;;14.36;100.00;92944.03;4966738;28;20049;-83
2023/09/15 03:31:38;;;;;;;3.95;2.35;;;;;;;14.35;100.00;92931.94;4975475;28;20042;-83
2023/09/15 03:34:06;;;;;;;4.53;2.42;;;;;;;14.35;100.00;92937.22;4975074;28;20045;-83
2023/09/15 03:36:32;;;;;;;4.80;2.25;;;;;;;14.32;100.00;92932.56;4993335;28;20030;-83
2023/09/15 03:38:58;;;;;;;4.15;2.10;;;;;;;14.33;100.00;92933.31;4976079;28;20062;-83
2023/09/15 03:41:25;;;;;;;4.43;2.42;;;;;;;14.31;100.00;92936.25;4984638;28;20034;-82
2023/09/15 03:43:52;;;;;;;3.22;1.90;;;;;;;14.30;100.00;92924.16;4983797;28;20216;-84
2023/09/15 03:46:18;;;;;;;4.05;1.77;;;;;;;14.31;100.00;92922.31;4982405;28;20034;-84
2023/09/15 03:48:44;;;;;;;3.50;1.83;;;;;;;14.33;100.00;92918.28;4992295;28;20042;-84
2023/09/15 03:51:09;;;;;;;4.47;1.90;;;;;;;14.36;100.00;92917.72;4982128;28;20030;-84
2023/09/15 03:53:35;;;;;;;3.40;1.90;;;;;;;14.36;100.00;92914.28;4994981;28;20045;-83
2023/09/15 03:56:01;;;;;;;3.33;2.00;;;;;;;14.36;100.00;92915.06;5001176;28;20422;-83
2023/09/15 03:58:28;;;;;;;3.17;1.88;;;;;;;14.33;100.00;92906.97;4999765;28;20307;-83
2023/09/15 04:00:54;;;;;;;3.47;2.00;;;;;;;14.33;100.00;92902.50;4992907;28;20043;-83
2023/09/15 04:03:20;;;;;;;3.22;1.80;;;;;;;14.42;100.00;92899.94;4980573;28;20039;-84
2023/09/15 04:05:46;;;;;;;6.97;1.88;;;;;;;14.37;100.00;92908.72;4964240;28;20041;-84
2023/09/15 04:08:13;;;;;;;3.78;1.70;;;;;;;14.28;100.00;92897.34;4983235;28;20075;-85
2023/09/15 04:10:38;;;;;;;3.78;1.70;;;;;;;14.38;100.00;92902.38;4995798;28;20493;-84
2023/09/15 04:13:04;;;;;;;4.30;1.48;;;;;;;14.51;100.00;92907.88;4978135;28;20035;-83
2023/09/15 04:15:30;;;;;;;3.22;1.50;;;;;;;14.44;100.00;92913.56;4989174;28;20039;-83
2023/09/15 04:17:55;;;;;;;3.13;1.70;;;;;;;14.40;100.00;92906.56;4990023;28;20069;-83
2023/09/15 04:20:22;;;;;;;5.38;1.98;;;;;;;14.36;100.00;92901.91;4982477;28;20045;-84
2023/09/15 04:22:49;;;;;;;2.92;1.70;;;;;;;14.34;100.00;92903.25;4982404;28;20034;-83
2023/09/15 04:25:16;;;;;;;2.88;1.40;;;;;;;14.31;100.00;92903.88;4981568;28;20031;-84
2023/09/15 04:27:42;;;;;;;3.22;1.60;;;;;;;14.31;100.00;92903.88;4974352;28;20050;-84
2023/09/15 04:30:08;;;;;;;2.80;1.50;;;;;;;14.35;100.00;92904.84;4980789;28;20034;-83
2023/09/15 04:32:42;;;;;;;3.13;1.60;;;;;;;14.30;100.00;92902.31;4967672;28;20038;-84
2023/09/15 04:35:09;;;;;;;4.00;1.60;;;;;;;14.24;100.00;92906.16;4976018;28;20038;-83
2023/09/15 04:37:35;;;;;;;3.75;1.65;;;;;;;14.25;100.00;92908.50;4972522;28;20051;-83
2023/09/15 04:40:03;;;;;;;2.78;1.52;;;;;;;14.23;100.00;92907.19;4969573;28;20085;-83
2023/09/15 04:42:29;;;;;;;2.38;1.40;;;;;;;14.20;100.00;92907.81;4985488;28;20038;-84
2023/09/15 04:44:55;;;;;;;4.97;1.75;;;;;;;14.16;100.00;92908.41;4971188;28;20047;-84
2023/09/15 04:47:35;;;;;;;3.97;1.70;;;;;;;14.12;100.00;92901.41;4969876;28;20490;-86
2023/09/15 04:50:07;;;;;;;5.03;1.60;;;;;;;14.11;100.00;92910.38;4960072;28;20120;-84
2023/09/15 04:52:33;;;;;;;3.53;1.65;;;;;;;14.09;100.00;92901.97;4967210;28;20061;-84
2023/09/15 04:54:59;;;;;;;4.00;1.60;;;;;;;14.06;100.00;92902.59;4975915;28;20525;-83
2023/09/15 04:57:25;;;;;;;3.08;1.70;;;;;;;14.03;100.00;92908.47;4972950;28;20048;-84
2023/09/15 04:59:54;;;;;;;3.53;1.60;;;;;;;14.03;100.00;92908.47;4964800;28;20071;-82
2023/09/15 05:02:24;;;;;;;2.33;1.33;;;;;;;13.97;100.00;92914.91;4985385;28;20065;-83
2023/09/15 05:04:52;;;;;;;2.83;1.50;;;;;;;13.96;100.00;92906.22;4971686;28;20116;-82
2023/09/15 05:07:19;;;;;;;3.22;1.80;;;;;;;13.95;100.00;92908.06;4973534;28;20031;-85
2023/09/15 05:09:45;;;;;;;2.67;1.30;;;;;;;13.94;100.00;92909.16;4978194;28;20133;-84
2023/09/15 05:12:12;;;;;;;3.75;1.48;;;;;;;13.88;100.00;92902.44;4972619;28;20062;-84
2023/09/15 05:14:37;;;;;;;2.80;1.60;;;;;;;13.85;100.00;92903.03;4971749;28;20070;-83
2023/09/15 05:17:03;;;;;;;2.42;1.40;;;;;;;13.82;100.00;92913.34;4965817;28;20046;-82
2023/09/15 05:19:29;;;;;;;2.90;1.40;;;;;;;13.80;100.00;92913.63;4968260;28;20046;-84
2023/09/15 05:21:55;;;;;;;2.70;1.55;;;;;;;13.82;100.00;92927.28;4971559;28;20035;-83
2023/09/15 05:24:22;;;;;;;4.03;1.58;;;;;;;13.71;100.00;92925.94;4976831;28;20031;-84
2023/09/15 05:26:48;;;;;;;2.97;1.60;;;;;;;13.67;100.00;92920.50;4980326;28;20041;-84
2023/09/15 05:29:13;;;;;;;2.95;1.50;;;;;;;13.66;100.00;92923.41;4966632;28;20042;-84
2023/09/15 05:31:39;;;;;;;7.72;1.85;;;;;;;13.67;100.00;92925.00;4961063;28;20039;-84
2023/09/15 05:34:05;;;;;;;4.03;1.50;;;;;;;13.68;100.00;92924.69;4966099;28;20126;-83
2023/09/15 05:36:30;;;;;;;2.13;1.50;;;;;;;13.74;100.00;92928.00;4974303;28;20126;-84
2023/09/15 05:38:56;;;;;;;3.17;1.60;;;;;;;13.77;100.00;92932.66;4980109;28;20039;-84
2023/09/15 05:41:22;;;;;;;2.58;1.48;;;;;;;13.74;100.00;92947.19;4953482;28;20043;-85
2023/09/15 05:43:47;;;;;;;9.95;2.05;;;;;;;13.72;100.00;92951.97;4972274;28;20427;-85
2023/09/15 05:46:13;;;;;;;2.78;1.42;;;;;;;13.70;100.00;92956.72;4967071;28;20039;-85
2023/09/15 05:48:39;;;;;;;2.53;1.40;;;;;;;13.72;100.00;92956.44;4968353;28;20043;-85
2023/09/15 05:51:06;;;;;;;5.70;1.30;;;;;;;13.71;100.00;92960.13;4968486;28;20034;-85
2023/09/15 05:53:33;;;;;;;2.15;1.30;;;;;;;13.69;100.00;92960.44;4972978;28;20058;-84
2023/09/15 05:55:59;;;;;;;3.17;1.30;;;;;;;13.68;100.00;92961.50;4973955;28;20038;-85
2023/09/15 05:58:24;;;;;;;4.50;1.50;;;;;;;13.66;100.00;92947.09;4971161;28;20533;-84
2023/09/15 06:00:55;;;;;;;3.25;1.40;;;;;;;13.68;100.00;92956.25;4969651;28;20031;-83
2023/09/15 06:03:22;;;;;;;3.22;1.63;;;;;;;13.69;100.00;92951.75;4962554;28;20043;-83
2023/09/15 06:05:48;;;;;;;4.00;1.67;;;;;;;13.69;100.00;92957.03;4964376;28;20031;-84
2023/09/15 06:08:14;;;;;;;2.80;1.55;;;;;;;13.70;100.00;92945.44;4967737;28;20083;-84
2023/09/15 06:10:40;;;;;;;3.25;1.67;;;;;;;13.69;100.00;92957.03;4967390;28;20039;-83
2023/09/15 06:13:06;;;;;;;3.25;1.60;;;;;;;13.69;100.00;92960.44;4959010;28;20470;-85
2023/09/15 06:15:34;;;;;;;2.45;1.33;;;;;;;13.60;100.00;92948.25;4958666;28;20051;-85
2023/09/15 06:18:01;;;;;;;2.90;1.30;;;;;;;13.53;100.00;92954.72;4967407;28;20035;-84
2023/09/15 06:20:30;;;;;;;2.92;1.50;;;;;;;13.53;100.00;92954.72;4966598;28;20031;-85
2023/09/15 06:22:56;;;;;;;3.53;1.70;;;;;;;13.54;100.00;92953.63;4965684;28;20049;-85
2023/09/15 06:25:22;;;;;;;4.75;1.67;;;;;;;13.58;100.00;92950.41;4965711;28;20031;-85
2023/09/15 06:27:47;;;;;;;2.58;1.50;;;;;;;13.58;100.00;92953.03;4965168;28;20123;-85
2023/09/15 06:30:13;;;;;;;7.50;1.80;;;;;;;13.57;100.00;92954.13;4968046;28;20038;-85
2023/09/15 06:32:39;;;;;;;3.80;1.60;;;;;;;13.59;100.00;92954.59;4958314;29;20039;-85
2023/09/15 06:35:06;;;;;;;2.88;1.15;;;;;;;13.58;100.00;92950.41;4959477;28;20390;-85
2023/09/15 06:37:31;;;;;;;71.03;3.58;;;;;;;13.54;100.00;92958.88;4969734;28;20050;-85
2023/09/15 06:39:57;;;;;;;31.73;2.60;;;;;;;13.56;100.00;92957.81;4961602;28;20035;-85
2023/09/15 06:42:23;;;;;;;521.80;14.43;;;;;;;13.53;100.00;92967.84;4966407;28;20518;-85
2023/09/15 06:44:48;;;;;;;5.57;2.55;;;;;;;13.54;100.00;92966.78;4958445;29;20026;-85
2023/09/15 06:47:14;;;;;;;6.18;2.70;;;;;;;13.60;100.00;92974.56;4960895;28;20046;-85
2023/09/15 06:49:39;;;;;;;4.13;2.78;;;;;;;13.63;100.00;92974.75;4969544;28;20035;-85
2023/09/15 06:52:06;;;;;;;8.45;2.80;;;;;;;13.64;100.00;92971.06;4961675;28;20035;-84
2023/09/15 06:54:32;;;;;;;4.97;2.60;;;;;;;13.64;100.00;92971.06;4965297;28;20062;-85
2023/09/15 06:56:57;;;;;;;8.07;2.85;;;;;;;13.73;100.00;92968.50;4969854;28;20039;-85
2023/09/15 06:59:23;;;;;;;4.32;1.48;;;;;;;13.78;100.00;92972.91;4965812;28;20541;-85
2023/09/15 07:01:48;;;;;;;6.85;1.60;;;;;;;13.77;100.00;92974.75;4967090;28;20054;-85
2023/09/15 07:04:14;;;;;;;2.95;1.40;;;;;;;13.81;100.00;92975.72;4971626;28;20061;-85
2023/09/15 07:06:40;;;;;;;2.45;1.40;;;;;;;13.88;100.00;92970.84;4967730;28;20046;-86
2023/09/15 07:09:06;;;;;;;2.30;1.27;;;;;;;13.95;100.00;92980.97;4970421;28;20020;-85
2023/09/15 07:11:32;;;;;;;2.85;1.40;;;;;;;14.00;100.00;92978.25;4984606;28;20069;-85
2023/09/15 07:13:58;;;;;;;1.75;1.20;;;;;;;14.10;100.00;92982.53;4984287;28;20035;-85
2023/09/15 07:16:23;;;;;;;1.45;1.13;;;;;;;14.13;100.00;92993.22;4980848;28;20046;-84
2023/09/15 07:18:49;;;;;;;2.20;1.30;;;;;;;14.14;100.00;92994.03;4989295;28;20035;-85
2023/09/15 07:21:15;;;;;;;2.75;1.38;;;;;;;14.17;100.00;92985.53;4983219;28;20487;-84
2023/09/15 07:23:40;;;;;;;2.05;1.23;;;;;;;14.25;100.00;92984.84;4992718;28;20038;-84
2023/09/15 07:26:06;;;;;;;2.03;1.27;;;;;;;14.33;100.00;92989.41;4991666;28;20062;-85
2023/09/15 07:28:32;;;;;;;2.25;1.40;;;;;;;14.35;100.00;93000.41;4985844;28;20548;-85
2023/09/15 07:31:04;;;;;;;2.03;1.27;;;;;;;14.41;100.00;92993.19;4993305;28;20038;-85
2023/09/15 07:33:30;;;;;;;2.63;1.30;;;;;;;14.50;100.00;93001.16;4993613;28;20034;-85
2023/09/15 07:36:04;;;;;;;1.65;1.10;;;;;;;14.58;100.00;92995.22;4984517;28;20027;-85
2023/09/15 07:38:33;;;;;;;1.40;1.02;;;;;;;14.65;100.00;92997.44;4988978;28;20500;-83
2023/09/15 07:40:59;;;;;;;3.47;1.10;;;;;;;14.71;100.00;92997.03;4989008;28;20549;-83
2023/09/15 07:43:24;;;;;;;1.00;0.90;;;;;;;14.78;100.00;92999.25;4985544;28;20038;-81
2023/09/15 07:45:50;;;;;;;1.70;1.00;;;;;;;14.88;100.00;93004.28;4983675;28;20061;-82
2023/09/15 07:48:17;;;;;;;5.38;1.35;;;;;;;14.89;100.00;92997.94;4984459;28;20042;-83
2023/09/15 07:50:43;;;;;;;1.55;0.90;;;;;;;14.97;100.00;92999.03;4980238;28;20058;-83
2023/09/15 07:53:09;;;;;;;1.52;1.02;;;;;;;15.04;100.00;92993.34;4997643;28;20034;-85
2023/09/15 07:55:35;;;;;;;1.45;0.95;;;;;;;15.12;100.00;92996.03;4995543;28;20461;-85
2023/09/15 07:58:00;;;;;;;2.40;1.20;;;;;;;15.23;100.00;92991.31;4979942;28;20046;-85
2023/09/15 08:00:26;;;;;;;2.38;1.10;;;;;;;15.37;100.00;92985.94;4979776;28;20039;-85
2023/09/15 08:02:51;;;;;;;2.78;1.20;;;;;;;15.56;100.00;92983.09;4988802;28;20414;-85
2023/09/15 08:05:17;;;;;;;1.40;1.05;;;;;;;15.73;100.00;92983.16;4964748;28;20121;-85
2023/09/15 08:07:47;;;;;;;1.10;1.00;;;;;;;15.93;100.00;92984.47;4990388;28;20042;-85
2023/09/15 08:10:14;;;;;;;4.03;1.20;;;;;;;16.12;100.00;92984.22;4990953;28;20387;-84
2023/09/15 08:12:40;;;;;;;2.45;1.10;;;;;;;16.23;100.00;92989.97;4986201;28;20042;-85
2023/09/15 08:15:07;;;;;;;2.08;1.10;;;;;;;16.41;100.00;92986.28;4989087;28;20041;-85
2023/09/15 08:17:33;;;;;;;2.53;0.90;;;;;;;16.71;100.00;92989.09;4988878;28;20105;-85
2023/09/15 08:19:59;;;;;;;3.35;1.10;;;;;;;16.57;100.00;92991.09;4980640;28;20047;-84
2023/09/15 08:22:26;;;;;;;1.13;0.90;;;;;;;16.56;100.00;92992.19;4980471;28;20058;-85
2023/09/15 08:24:53;;;;;;;1.55;1.02;;;;;;;16.65;100.00;92992.97;4975860;28;20070;-85
2023/09/15 08:27:19;;;;;;;2.38;0.80;;;;;;;16.70;100.00;93003.38;4964257;28;20070;-84
2023/09/15 08:29:45;;;;;;;3.67;0.90;;;;;;;16.70;100.00;92994.69;4981009;28;20389;-84
2023/09/15 08:32:13;;;;;;;3.97;1.00;;;;;;;16.76;100.00;92993.44;4981910;28;20022;-85
2023/09/15 08:34:38;;;;;;;2.70;1.38;;;;;;;16.83;100.00;92986.63;5000236;28;20080;-85
2023/09/15 08:37:04;;;;;;;2.03;1.25;;;;;;;16.92;100.00;92989.25;4973837;28;20046;-85
2023/09/15 08:39:29;;;;;;;2.50;1.30;;;;;;;16.91;100.00;92981.63;4989132;28;20422;-85
2023/09/15 08:42:04;;;;;;;4.10;1.90;;;;;;;17.01;100.00;92981.31;4980909;28;20450;-85
2023/09/15 08:44:32;;;;;;;265.08;7.50;;;;;;;16.76;100.00;92983.63;4980807;28;20073;-85
2023/09/15 08:47:00;;;;;;;508.65;11.45;;;;;;;16.45;100.00;92989.84;4975862;28;20035;-84
2023/09/15 08:49:27;;;;;;;24.60;3.65;;;;;;;16.18;100.00;92982.97;4996074;28;20045;-84
2023/09/15 08:51:54;;;;;;;3.80;1.95;;;;;;;16.21;100.00;92981.56;4987828;28;20030;-84
2023/09/15 08:54:20;;;;;;;3.90;2.03;;;;;;;16.26;100.00;92986.72;4981450;28;20039;-85
2023/09/15 08:56:47;;;;;;;5.20;1.95;;;;;;;16.39;100.00;92985.81;4981143;28;20041;-84
2023/09/15 08:59:13;;;;;;;3.00;1.80;;;;;;;16.50;100.00;92983.63;4980806;28;20038;-85
2023/09/15 09:01:39;;;;;;;4.28;1.80;;;;;;;16.62;100.00;92985.66;4988631;28;20046;-85
2023/09/15 09:04:05;;;;;;;3.30;1.55;;;;;;;16.66;100.00;92989.22;4989695;28;20042;-84
2023/09/15 09:06:34;;;;;;;2.45;1.20;;;;;;;16.75;100.00;92987.38;4962311;28;20084;-85
2023/09/15 09:09:00;;;;;;;1.20;0.90;;;;;;;16.93;100.00;92992.66;4979629;28;20527;-85
2023/09/15 09:11:26;;;;;;;3.28;1.70;;;;;;;17.03;100.00;93000.28;4987006;28;20050;-85
2023/09/15 09:13:53;;;;;;;5.88;2.05;;;;;;;16.84;100.00;92998.75;4986713;28;20039;-85
2023/09/15 09:16:20;;;;;;;4.85;2.60;;;;;;;16.76;100.00;92996.84;4978798;28;21138;-85
2023/09/15 09:19:00;;;;;;;4.38;1.98;;;;;;;16.70;100.00;93002.59;4987529;28;20541;-84
2023/09/15 09:21:30;;;;;;;6.78;1.98;;;;;;;16.63;100.00;93000.44;4990894;28;20098;-85
2023/09/15 09:23:57;;;;;;;192.30;5.38;;;;;;;16.53;100.00;93009.44;4990631;28;20091;-85
2023/09/15 09:26:23;;;;;;;456.52;11.13;;;;;;;16.49;100.00;93005.88;4981337;28;20030;-85
2023/09/15 09:28:49;;;;;;;115.38;4.18;;;;;;;16.54;100.00;93007.56;4983928;28;20035;-85
2023/09/15 09:31:15;;;;;;;65.93;3.90;;;;;;;16.56;100.00;93008.03;4979145;28;20035;-85
2023/09/15 09:33:42;;;;;;;355.75;8.52;;;;;;;16.51;100.00;93008.22;4992337;28;20417;-83
2023/09/15 09:36:13;;;;;;;655.03;16.52;;;;;;;16.34;100.00;93006.31;4979467;28;20486;-84
2023/09/15 09:38:44;;;;;;;602.00;16.08;;;;;;;16.01;100.00;93012.78;4989358;28;20100;-84
2023/09/15 09:41:11;;;;;;;1999.90;61.47;;;;;;;15.68;100.00;93014.19;4988682;28;20121;-84
2023/09/15 09:43:42;;;;;;;1860.07;58.75;;;;;;;15.57;100.00;93027.63;4984891;28;20031;-83
2023/09/15 09:46:09;;;;;;;1620.40;45.67;;;;;;;15.51;100.00;93023.56;4981028;28;20242;-84
2023/09/15 09:48:38;;;;;;;1221.90;42.00;;;;;;;15.39;100.00;93020.72;4977977;28;20039;-84
2023/09/15 09:51:05;;;;;;;1156.05;33.65;;;;;;;15.32;100.00;93023.78;4992715;28;20038;-83
2023/09/15 09:53:34;;;;;;;102.30;5.78;;;;;;;15.18;100.00;93026.50;4983788;28;20429;-83
2023/09/15 09:56:08;;;;;;;6.20;4.03;;;;;;;15.13;100.00;93024.00;4985099;28;20055;-83
2023/09/15 09:58:38;;;;;;;9.32;3.80;;;;;;;15.19;100.00;93028.03;4983556;28;20070;-84
2023/09/15 10:01:06;;;;;;;13.43;4.93;;;;;;;15.29;100.00;93024.41;4976830;28;20504;-83
2023/09/15 10:03:34;;;;;;;6.18;3.78;;;;;;;15.30;100.00;93027.81;4980317;28;20098;-84
2023/09/15 10:06:00;;;;;;;6.63;3.60;;;;;;;15.37;100.00;93017.59;4961106;28;20035;-84
2023/09/15 10:08:27;;;;;;;6.13;3.80;;;;;;;15.52;100.00;93025.13;4985983;28;20066;-84
2023/09/15 10:10:53;;;;;;;5.95;3.92;;;;;;;15.63;100.00;93020.38;4984428;28;20525;-83
2023/09/15 10:13:19;;;;;;;6.40;3.67;;;;;;;15.74;100.00;93021.69;4959050;28;20534;-84
2023/09/15 10:15:46;;;;;;;5.30;3.53;;;;;;;15.83;100.00;93029.66;4972156;28;20045;-84
2023/09/15 10:18:14;;;;;;;1439.20;32.72;;;;;;;15.85;100.00;93031.97;4967858;28;20034;-84
2023/09/15 10:20:42;;;;;;;1699.90;52.75;;;;;;;15.72;100.00;93029.13;4963150;28;20039;-84
2023/09/15 10:23:08;;;;;;;629.72;19.75;;;;;;;15.61;100.00;93033.84;4971347;28;20107;-84
2023/09/15 10:25:48;;;;;;;5.60;3.30;;;;;;;15.56;100.00;93031.34;4965071;28;20043;-84
2023/09/15 10:28:14;;;;;;;709.78;20.17;;;;;;;15.50;100.00;93035.19;4957573;28;20126;-84
2023/09/15 10:30:41;;;;;;;1345.80;40.53;;;;;;;15.48;100.00;93033.94;4964033;28;20030;-84
2023/09/15 10:33:07;;;;;;;585.05;18.08;;;;;;;15.37;100.00;93036.06;4968174;28;20113;-83
2023/09/15 10:35:34;;;;;;;505.27;14.85;;;;;;;15.32;100.00;93039.59;4957908;28;20042;-82
2023/09/15 10:38:03;;;;;;;129.20;8.10;;;;;;;15.26;100.00;93042.66;4962980;28;20057;-84
2023/09/15 10:40:46;;;;;;;9.63;3.83;;;;;;;15.38;100.00;93040.28;4968264;28;20034;-84
2023/09/15 10:43:12;;;;;;;807.78;22.00;;;;;;;15.25;100.00;93033.97;4962462;28;20122;-84
2023/09/15 10:45:38;;;;;;;54.50;6.53;;;;;;;15.30;100.00;93030.44;4977178;28;20035;-84
2023/09/15 10:48:04;;;;;;;9.75;5.10;;;;;;;15.37;100.00;93028.16;4968398;28;20050;-84
2023/09/15 10:50:35;;;;;;;7.07;5.32;;;;;;;15.47;100.00;93033.19;4970141;28;20491;-83
2023/09/15 10:53:12;;;;;;;8.40;4.82;;;;;;;15.60;100.00;93027.03;4966120;28;20044;-84
2023/09/15 10:55:40;;;;;;;7.68;4.60;;;;;;;15.69;100.00;93028.91;4969107;28;20065;-84
2023/09/15 10:58:06;;;;;;;5.28;3.97;;;;;;;15.74;100.00;93023.56;4968539;28;20023;-83
2023/09/15 11:00:33;;;;;;;4.28;3.03;;;;;;;15.82;100.00;93028.06;4965805;28;20035;-84
2023/09/15 11:02:59;;;;;;;502.50;18.08;;;;;;;15.62;100.00;93024.84;4960956;28;20031;-84
2023/09/15 11:05:27;;;;;;;419.80;16.15;;;;;;;15.42;100.00;93033.28;4970028;28;20051;-84
2023/09/15 11:07:56;;;;;;;758.85;26.77;;;;;;;15.25;100.00;93020.03;4962149;28;20031;-84
2023/09/15 11:10:32;;;;;;;5.95;4.05;;;;;;;15.29;100.00;93027.03;4970032;28;20125;-84
2023/09/15 11:12:59;;;;;;;4.85;3.13;;;;;;;15.36;100.00;93022.09;4985929;28;20105;-84
2023/09/15 11:15:25;;;;;;;3.90;2.33;;;;;;;15.46;100.00;93015.78;4961605;28;20137;-84
2023/09/15 11:17:51;;;;;;;3.97;1.98;;;;;;;15.59;100.00;93009.63;4969610;28;20045;-85
2023/09/15 11:20:17;;;;;;;2.90;1.77;;;;;;;15.67;100.00;93009.97;4978549;28;20023;-85
2023/09/15 11:22:43;;;;;;;3.05;1.70;;;;;;;15.82;100.00;93014.88;4960749;28;20050;-85